Time;durP1;ratioP1;P1;durP2;ratioP2;P2;SDS_P1;SDS_P2;PMS_P1;PMS_P2;Temp;Humidity;BMP_temperature;BMP_pressure;BME280_temperature;BME280_humidity;BME280_pressure;Samples;Min_cycle;Max_cycle;Signal;HPM_P1;HPM_P2
2021/07/19 00:00:34;;;;;;;6.7;5.1;;;;;;;20.4;59.6;102060;;;;
2021/07/19 00:04:34;;;;;;;6.7;5.1;;;;;;;20.3;59.9;102050;;;;
2021/07/19 00:06:34;;;;;;;6.7;5.1;;;;;;;20.2;59.5;102050;;;;
2021/07/19 00:08:34;;;;;;;9.1;6.5;;;;;;;20.4;59.5;102040;;;;
2021/07/19 00:10:34;;;;;;;9.1;6.5;;;;;;;20.2;60.0;102040;;;;
2021/07/19 00:12:34;;;;;;;9.1;6.5;;;;;;;20.1;59.8;102040;;;;
2021/07/19 00:16:34;;;;;;;9.1;6.5;;;;;;;19.8;60.9;102040;;;;
2021/07/19 00:18:34;;;;;;;9.1;6.5;;;;;;;19.6;60.9;102040;;;;
2021/07/19 00:22:34;;;;;;;9.1;6.5;;;;;;;19.7;61.4;102040;;;;
2021/07/19 00:24:34;;;;;;;9.1;6.5;;;;;;;19.6;61.3;102040;;;;
2021/07/19 00:26:34;;;;;;;9.1;6.5;;;;;;;19.7;60.6;102040;;;;
2021/07/19 00:28:34;;;;;;;6.5;5.5;;;;;;;19.8;60.2;102050;;;;
2021/07/19 00:30:36;;;;;;;6.5;5.5;;;;;;;19.6;61.5;102040;;;;
2021/07/19 00:32:34;;;;;;;6.5;5.5;;;;;;;19.7;60.4;102040;;;;
2021/07/19 00:36:34;;;;;;;6.5;5.5;;;;;;;19.5;61.2;102040;;;;
2021/07/19 00:42:36;;;;;;;6.5;5.5;;;;;;;19.4;61.7;102040;;;;
2021/07/19 00:52:34;;;;;;;7.2;5.5;;;;;;;19.5;60.8;102040;;;;
2021/07/19 00:54:34;;;;;;;7.2;5.5;;;;;;;19.4;61.3;102040;;;;
2021/07/19 00:56:34;;;;;;;7.2;5.5;;;;;;;19.2;61.5;102040;;;;
2021/07/19 00:58:35;;;;;;;7.2;5.5;;;;;;;19.3;61.2;102030;;;;
2021/07/19 01:02:34;;;;;;;7.2;5.5;;;;;;;19.2;61.3;102040;;;;
2021/07/19 01:08:34;;;;;;;5.6;4.7;;;;;;;19.3;60.7;102040;;;;
2021/07/19 01:10:34;;;;;;;5.6;4.7;;;;;;;19.4;60.5;102040;;;;
2021/07/19 01:12:34;;;;;;;5.6;4.7;;;;;;;19.2;61.0;102040;;;;
2021/07/19 01:14:34;;;;;;;5.6;4.7;;;;;;;19.3;60.5;102030;;;;
2021/07/19 01:16:34;;;;;;;5.6;4.7;;;;;;;19.1;61.1;102030;;;;
2021/07/19 01:20:34;;;;;;;5.6;4.7;;;;;;;18.9;61.9;102040;;;;
2021/07/19 01:22:34;;;;;;;5.6;4.7;;;;;;;18.8;62.3;102040;;;;
2021/07/19 01:24:34;;;;;;;5.6;4.7;;;;;;;18.9;61.8;102030;;;;
2021/07/19 01:28:34;;;;;;;8.1;5.7;;;;;;;18.8;61.9;102040;;;;
2021/07/19 01:30:34;;;;;;;8.1;5.7;;;;;;;18.7;62.6;102040;;;;
2021/07/19 01:36:34;;;;;;;8.1;5.7;;;;;;;18.8;61.9;102040;;;;
2021/07/19 01:42:34;;;;;;;8.1;5.7;;;;;;;18.7;62.0;102040;;;;
2021/07/19 01:44:38;;;;;;;8.1;5.7;;;;;;;18.8;61.6;102030;;;;
2021/07/19 01:48:34;;;;;;;6.9;5.7;;;;;;;18.9;61.2;102020;;;;
2021/07/19 01:50:34;;;;;;;6.9;5.7;;;;;;;18.8;61.1;102010;;;;
2021/07/19 01:54:34;;;;;;;6.9;5.7;;;;;;;18.6;62.3;102010;;;;
2021/07/19 02:02:34;;;;;;;6.9;5.7;;;;;;;18.5;61.9;102000;;;;
2021/07/19 02:04:34;;;;;;;6.9;5.7;;;;;;;18.6;62.1;102000;;;;
2021/07/19 02:08:34;;;;;;;8.7;6.5;;;;;;;18.5;62.2;102010;;;;
2021/07/19 02:10:34;;;;;;;8.7;6.5;;;;;;;18.4;62.6;102010;;;;
2021/07/19 02:12:34;;;;;;;8.7;6.5;;;;;;;18.1;63.9;102020;;;;
2021/07/19 02:18:34;;;;;;;8.7;6.5;;;;;;;18.0;63.7;102020;;;;
2021/07/19 02:20:34;;;;;;;8.7;6.5;;;;;;;18.1;63.6;102020;;;;
2021/07/19 02:22:34;;;;;;;8.7;6.5;;;;;;;18.2;63.0;102010;;;;
2021/07/19 02:24:34;;;;;;;8.7;6.5;;;;;;;18.1;63.4;102010;;;;
2021/07/19 02:26:34;;;;;;;8.7;6.5;;;;;;;18.0;64.2;102010;;;;
2021/07/19 02:28:34;;;;;;;7.0;6.3;;;;;;;18.1;63.2;102010;;;;
2021/07/19 02:30:34;;;;;;;7.0;6.3;;;;;;;18.0;63.8;102010;;;;
2021/07/19 02:34:34;;;;;;;7.0;6.3;;;;;;;17.9;64.0;102030;;;;
2021/07/19 02:36:34;;;;;;;7.0;6.3;;;;;;;18.0;63.4;102030;;;;
2021/07/19 02:40:34;;;;;;;7.0;6.3;;;;;;;18.1;63.3;102030;;;;
2021/07/19 02:44:34;;;;;;;7.0;6.3;;;;;;;18.0;63.7;102020;;;;
2021/07/19 02:48:36;;;;;;;7.9;6.7;;;;;;;18.1;62.4;102020;;;;
2021/07/19 02:52:34;;;;;;;7.9;6.7;;;;;;;17.9;64.3;102030;;;;
2021/07/19 02:58:34;;;;;;;7.9;6.7;;;;;;;18.0;63.1;102020;;;;
2021/07/19 03:12:34;;;;;;;8.2;6.8;;;;;;;17.9;63.4;102040;;;;
2021/07/19 03:14:34;;;;;;;8.2;6.8;;;;;;;17.8;63.9;102040;;;;
2021/07/19 03:16:34;;;;;;;8.2;6.8;;;;;;;18.0;62.5;102040;;;;
2021/07/19 03:18:34;;;;;;;8.2;6.8;;;;;;;17.9;62.8;102040;;;;
2021/07/19 03:26:34;;;;;;;8.2;6.8;;;;;;;18.0;62.2;102040;;;;
2021/07/19 03:28:34;;;;;;;9.0;7.8;;;;;;;17.9;62.6;102040;;;;
2021/07/19 03:30:34;;;;;;;9.0;7.8;;;;;;;17.8;63.0;102040;;;;
2021/07/19 03:34:34;;;;;;;9.0;7.8;;;;;;;17.9;62.1;102030;;;;
2021/07/19 03:36:34;;;;;;;9.0;7.8;;;;;;;17.8;63.4;102030;;;;
2021/07/19 03:38:35;;;;;;;9.0;7.8;;;;;;;17.7;62.9;102030;;;;
2021/07/19 03:40:34;;;;;;;9.0;7.8;;;;;;;17.8;62.3;102030;;;;
2021/07/19 03:46:34;;;;;;;9.0;7.8;;;;;;;17.7;62.4;102030;;;;
2021/07/19 03:48:34;;;;;;;11.7;10.2;;;;;;;17.8;62.3;102030;;;;
2021/07/19 03:54:34;;;;;;;11.7;10.2;;;;;;;17.6;62.9;102040;;;;
2021/07/19 03:56:35;;;;;;;11.7;10.2;;;;;;;17.7;62.9;102040;;;;
2021/07/19 03:58:34;;;;;;;11.7;10.2;;;;;;;17.6;64.1;102040;;;;
2021/07/19 04:00:34;;;;;;;11.7;10.2;;;;;;;17.5;63.9;102040;;;;
2021/07/19 04:02:34;;;;;;;11.7;10.2;;;;;;;17.3;64.6;102040;;;;
2021/07/19 04:04:42;;;;;;;11.7;10.2;;;;;;;17.5;63.2;102040;;;;
2021/07/19 04:06:34;;;;;;;11.7;10.2;;;;;;;17.6;63.3;102040;;;;
2021/07/19 04:10:34;;;;;;;11.0;9.1;;;;;;;17.5;63.3;102040;;;;
2021/07/19 04:12:34;;;;;;;11.0;9.1;;;;;;;17.6;62.6;102040;;;;
2021/07/19 04:14:34;;;;;;;11.0;9.1;;;;;;;17.4;64.3;102050;;;;
2021/07/19 04:16:34;;;;;;;11.0;9.1;;;;;;;17.3;64.4;102050;;;;
2021/07/19 04:20:34;;;;;;;11.0;9.1;;;;;;;17.5;63.0;102050;;;;
2021/07/19 04:26:34;;;;;;;11.0;9.1;;;;;;;17.4;63.9;102060;;;;
2021/07/19 04:28:34;;;;;;;10.5;8.6;;;;;;;17.5;63.8;102060;;;;
2021/07/19 04:30:34;;;;;;;10.5;8.6;;;;;;;17.3;64.2;102060;;;;
2021/07/19 04:32:34;;;;;;;10.5;8.6;;;;;;;17.4;63.3;102060;;;;
2021/07/19 04:36:34;;;;;;;10.5;8.6;;;;;;;17.5;63.5;102060;;;;
2021/07/19 04:40:34;;;;;;;10.5;8.6;;;;;;;17.3;64.6;102050;;;;
2021/07/19 04:42:34;;;;;;;10.5;8.6;;;;;;;17.2;64.7;102060;;;;
2021/07/19 04:46:34;;;;;;;10.5;8.6;;;;;;;17.4;63.5;102050;;;;
2021/07/19 04:50:34;;;;;;;10.6;8.6;;;;;;;17.5;63.2;102060;;;;
2021/07/19 04:52:34;;;;;;;10.6;8.6;;;;;;;17.4;64.2;102060;;;;
2021/07/19 04:56:34;;;;;;;10.6;8.6;;;;;;;17.6;63.3;102070;;;;
2021/07/19 04:58:34;;;;;;;10.6;8.6;;;;;;;17.4;64.5;102070;;;;
2021/07/19 05:00:34;;;;;;;10.6;8.6;;;;;;;17.5;63.9;102060;;;;
2021/07/19 05:04:34;;;;;;;10.6;8.6;;;;;;;17.4;65.1;102070;;;;
2021/07/19 05:06:34;;;;;;;10.6;8.6;;;;;;;17.6;63.3;102070;;;;
2021/07/19 05:08:34;;;;;;;11.5;9.8;;;;;;;17.5;63.8;102060;;;;
2021/07/19 05:12:34;;;;;;;11.5;9.8;;;;;;;17.4;65.8;102060;;;;
2021/07/19 05:14:34;;;;;;;11.5;9.8;;;;;;;17.5;64.3;102060;;;;
2021/07/19 05:22:34;;;;;;;11.5;9.8;;;;;;;17.6;64.8;102070;;;;
2021/07/19 05:28:34;;;;;;;10.7;9.1;;;;;;;17.7;65.0;102060;;;;
2021/07/19 05:30:34;;;;;;;10.7;9.1;;;;;;;17.8;65.4;102070;;;;
2021/07/19 05:32:34;;;;;;;10.7;9.1;;;;;;;17.7;64.8;102070;;;;
2021/07/19 05:36:34;;;;;;;10.7;9.1;;;;;;;17.8;65.3;102070;;;;
2021/07/19 05:42:34;;;;;;;10.7;9.1;;;;;;;18.0;63.8;102070;;;;
2021/07/19 05:44:34;;;;;;;10.7;9.1;;;;;;;18.1;63.7;102080;;;;
2021/07/19 05:46:34;;;;;;;10.7;9.1;;;;;;;18.2;63.4;102070;;;;
2021/07/19 05:48:34;;;;;;;12.6;10.7;;;;;;;18.1;64.0;102080;;;;
2021/07/19 05:52:34;;;;;;;12.6;10.7;;;;;;;18.2;64.4;102080;;;;
2021/07/19 05:58:34;;;;;;;12.6;10.7;;;;;;;18.3;63.9;102060;;;;
2021/07/19 06:00:34;;;;;;;12.6;10.7;;;;;;;18.4;64.5;102060;;;;
2021/07/19 06:02:34;;;;;;;12.6;10.7;;;;;;;18.5;63.9;102060;;;;
2021/07/19 06:10:34;;;;;;;11.9;10.1;;;;;;;18.4;64.4;102070;;;;
2021/07/19 06:12:34;;;;;;;11.9;10.1;;;;;;;18.6;64.3;102060;;;;
2021/07/19 06:14:34;;;;;;;11.9;10.1;;;;;;;18.5;64.1;102070;;;;
2021/07/19 06:16:34;;;;;;;11.9;10.1;;;;;;;18.6;64.1;102070;;;;
2021/07/19 06:18:34;;;;;;;11.9;10.1;;;;;;;18.7;63.1;102080;;;;
2021/07/19 06:20:34;;;;;;;11.9;10.1;;;;;;;18.8;62.8;102080;;;;
2021/07/19 06:26:34;;;;;;;11.9;10.1;;;;;;;18.9;62.9;102080;;;;
2021/07/19 06:32:34;;;;;;;11.6;9.6;;;;;;;19.0;62.7;102080;;;;
2021/07/19 06:34:34;;;;;;;11.6;9.6;;;;;;;19.1;62.1;102070;;;;
2021/07/19 06:36:34;;;;;;;11.6;9.6;;;;;;;19.0;62.1;102080;;;;
2021/07/19 06:44:34;;;;;;;11.6;9.6;;;;;;;19.2;61.8;102070;;;;
2021/07/19 06:48:34;;;;;;;9.1;7.6;;;;;;;19.1;61.9;102070;;;;
2021/07/19 06:50:34;;;;;;;9.1;7.6;;;;;;;19.2;61.8;102070;;;;
2021/07/19 06:52:34;;;;;;;9.1;7.6;;;;;;;19.4;61.2;102070;;;;
2021/07/19 06:56:34;;;;;;;9.1;7.6;;;;;;;19.5;60.1;102070;;;;
2021/07/19 07:06:34;;;;;;;8.7;7.1;;;;;;;19.7;59.3;102090;;;;
2021/07/19 07:10:34;;;;;;;8.7;7.1;;;;;;;19.6;59.1;102080;;;;
2021/07/19 07:12:34;;;;;;;8.7;7.1;;;;;;;19.7;59.3;102080;;;;
2021/07/19 07:14:34;;;;;;;8.7;7.1;;;;;;;19.8;59.2;102080;;;;
2021/07/19 07:16:34;;;;;;;8.7;7.1;;;;;;;20.0;58.9;102080;;;;
2021/07/19 07:20:34;;;;;;;8.7;7.1;;;;;;;19.9;58.7;102080;;;;
2021/07/19 07:24:34;;;;;;;8.7;7.1;;;;;;;20.0;58.4;102080;;;;
2021/07/19 07:26:34;;;;;;;8.1;7.3;;;;;;;20.2;58.1;102090;;;;
2021/07/19 07:28:34;;;;;;;8.1;7.3;;;;;;;20.5;57.8;102090;;;;
2021/07/19 07:32:34;;;;;;;8.1;7.3;;;;;;;20.7;57.5;102090;;;;
2021/07/19 07:34:34;;;;;;;8.1;7.3;;;;;;;20.8;57.1;102090;;;;
2021/07/19 07:36:34;;;;;;;8.1;7.3;;;;;;;20.6;57.0;102090;;;;
2021/07/19 07:38:34;;;;;;;8.1;7.3;;;;;;;20.7;56.9;102090;;;;
2021/07/19 07:42:34;;;;;;;8.1;7.3;;;;;;;20.8;56.9;102080;;;;
2021/07/19 07:44:34;;;;;;;8.1;7.3;;;;;;;20.9;56.5;102080;;;;
2021/07/19 07:48:35;;;;;;;9.2;8.3;;;;;;;20.8;56.3;102080;;;;
2021/07/19 07:50:34;;;;;;;9.2;8.3;;;;;;;21.0;56.3;102080;;;;
2021/07/19 07:52:34;;;;;;;9.2;8.3;;;;;;;20.9;55.7;102080;;;;
2021/07/19 07:54:34;;;;;;;9.2;8.3;;;;;;;21.0;55.5;102080;;;;
2021/07/19 07:56:44;;;;;;;9.2;8.3;;;;;;;21.2;55.4;102080;;;;
2021/07/19 07:58:34;;;;;;;9.2;8.3;;;;;;;21.4;55.1;102080;;;;
2021/07/19 08:00:34;;;;;;;9.2;8.3;;;;;;;21.5;54.9;102090;;;;
2021/07/19 08:04:34;;;;;;;9.2;8.3;;;;;;;21.6;54.0;102080;;;;
2021/07/19 08:06:34;;;;;;;8.7;7.8;;;;;;;21.8;54.2;102080;;;;
2021/07/19 08:10:34;;;;;;;8.7;7.8;;;;;;;21.7;53.2;102080;;;;
2021/07/19 08:12:34;;;;;;;8.7;7.8;;;;;;;21.5;53.6;102080;;;;
2021/07/19 08:14:34;;;;;;;8.7;7.8;;;;;;;21.6;53.8;102080;;;;
2021/07/19 08:16:36;;;;;;;8.7;7.8;;;;;;;21.8;53.4;102080;;;;
2021/07/19 08:18:34;;;;;;;8.7;7.8;;;;;;;22.1;54.0;102080;;;;
2021/07/19 08:22:34;;;;;;;8.7;7.8;;;;;;;22.0;52.1;102080;;;;
2021/07/19 08:26:34;;;;;;;9.8;8.8;;;;;;;22.1;52.0;102080;;;;
2021/07/19 08:28:34;;;;;;;9.8;8.8;;;;;;;22.3;52.3;102080;;;;
2021/07/19 08:32:34;;;;;;;9.8;8.8;;;;;;;22.4;50.8;102070;;;;
2021/07/19 08:42:34;;;;;;;9.8;8.8;;;;;;;22.6;51.0;102070;;;;
2021/07/19 08:44:34;;;;;;;9.8;8.8;;;;;;;22.8;50.9;102070;;;;
2021/07/19 08:46:35;;;;;;;10.3;9.1;;;;;;;22.9;50.5;102060;;;;
2021/07/19 08:48:34;;;;;;;10.3;9.1;;;;;;;22.6;49.9;102060;;;;
2021/07/19 08:52:34;;;;;;;10.3;9.1;;;;;;;22.8;50.4;102070;;;;
2021/07/19 08:54:34;;;;;;;10.3;9.1;;;;;;;22.6;49.9;102070;;;;
2021/07/19 08:56:34;;;;;;;10.3;9.1;;;;;;;22.5;49.7;102070;;;;
2021/07/19 08:58:34;;;;;;;10.3;9.1;;;;;;;22.7;50.0;102060;;;;
2021/07/19 09:00:34;;;;;;;10.3;9.1;;;;;;;22.4;49.4;102070;;;;
2021/07/19 09:02:34;;;;;;;10.3;9.1;;;;;;;22.2;50.1;102070;;;;
2021/07/19 09:04:34;;;;;;;10.3;9.1;;;;;;;22.4;49.4;102070;;;;
2021/07/19 09:06:34;;;;;;;10.5;9.4;;;;;;;22.5;50.1;102070;;;;
2021/07/19 09:08:34;;;;;;;10.5;9.4;;;;;;;22.6;49.8;102060;;;;
2021/07/19 09:10:34;;;;;;;10.5;9.4;;;;;;;22.7;49.5;102060;;;;
2021/07/19 09:14:34;;;;;;;10.5;9.4;;;;;;;22.6;50.2;102070;;;;
2021/07/19 09:16:34;;;;;;;10.5;9.4;;;;;;;22.9;50.2;102060;;;;
2021/07/19 09:24:34;;;;;;;10.5;9.4;;;;;;;23.2;49.2;102060;;;;
2021/07/19 09:26:34;;;;;;;12.1;9.9;;;;;;;23.3;48.1;102060;;;;
2021/07/19 09:28:34;;;;;;;12.1;9.9;;;;;;;23.1;48.8;102060;;;;
2021/07/19 09:30:34;;;;;;;12.1;9.9;;;;;;;23.2;49.8;102050;;;;
2021/07/19 09:32:34;;;;;;;12.1;9.9;;;;;;;23.1;48.4;102060;;;;
2021/07/19 09:34:34;;;;;;;12.1;9.9;;;;;;;23.0;49.2;102060;;;;
2021/07/19 09:36:34;;;;;;;12.1;9.9;;;;;;;23.2;49.6;102050;;;;
2021/07/19 09:40:34;;;;;;;12.1;9.9;;;;;;;23.4;48.2;102050;;;;
2021/07/19 09:42:34;;;;;;;12.1;9.9;;;;;;;23.3;48.6;102050;;;;
2021/07/19 09:44:34;;;;;;;12.1;9.9;;;;;;;23.5;48.3;102040;;;;
2021/07/19 09:46:34;;;;;;;10.1;9.1;;;;;;;23.8;47.8;102050;;;;
2021/07/19 09:48:34;;;;;;;10.1;9.1;;;;;;;23.7;48.5;102050;;;;
2021/07/19 09:50:34;;;;;;;10.1;9.1;;;;;;;23.8;48.0;102040;;;;
2021/07/19 09:52:34;;;;;;;10.1;9.1;;;;;;;23.7;48.6;102050;;;;
2021/07/19 09:54:34;;;;;;;10.1;9.1;;;;;;;23.9;48.9;102050;;;;
2021/07/19 09:56:34;;;;;;;10.1;9.1;;;;;;;24.0;48.6;102040;;;;
2021/07/19 09:58:34;;;;;;;10.1;9.1;;;;;;;24.1;48.2;102040;;;;
2021/07/19 10:00:37;;;;;;;10.1;9.1;;;;;;;23.7;47.8;102040;;;;
2021/07/19 10:02:34;;;;;;;10.1;9.1;;;;;;;23.5;48.3;102030;;;;
2021/07/19 10:04:34;;;;;;;10.1;9.1;;;;;;;23.9;48.8;102030;;;;
2021/07/19 10:06:34;;;;;;;11.7;10.5;;;;;;;24.0;49.0;102030;;;;
2021/07/19 10:08:34;;;;;;;11.7;10.5;;;;;;;24.3;47.7;102030;;;;
2021/07/19 10:12:34;;;;;;;11.7;10.5;;;;;;;24.2;47.6;102040;;;;
2021/07/19 10:14:34;;;;;;;11.7;10.5;;;;;;;24.0;47.8;102040;;;;
2021/07/19 10:16:34;;;;;;;11.7;10.5;;;;;;;23.9;47.5;102040;;;;
2021/07/19 10:18:34;;;;;;;11.7;10.5;;;;;;;24.2;47.8;102030;;;;
2021/07/19 10:20:34;;;;;;;11.7;10.5;;;;;;;24.5;47.2;102030;;;;
2021/07/19 10:22:34;;;;;;;11.7;10.5;;;;;;;24.4;47.1;102030;;;;
2021/07/19 10:24:34;;;;;;;11.7;10.5;;;;;;;24.6;46.6;102020;;;;
2021/07/19 10:26:34;;;;;;;11.3;9.8;;;;;;;24.4;46.6;102030;;;;
2021/07/19 10:28:34;;;;;;;11.3;9.8;;;;;;;24.2;47.5;102020;;;;
2021/07/19 10:30:34;;;;;;;11.3;9.8;;;;;;;24.4;47.4;102020;;;;
2021/07/19 10:34:34;;;;;;;11.3;9.8;;;;;;;24.5;47.7;102020;;;;
2021/07/19 10:36:34;;;;;;;11.3;9.8;;;;;;;24.3;46.5;102020;;;;
2021/07/19 10:40:34;;;;;;;11.3;9.8;;;;;;;24.2;46.4;102010;;;;
2021/07/19 10:42:34;;;;;;;11.3;9.8;;;;;;;24.3;48.1;102010;;;;
2021/07/19 10:44:34;;;;;;;11.3;9.8;;;;;;;24.4;47.7;102020;;;;
2021/07/19 10:46:34;;;;;;;10.4;9.3;;;;;;;24.3;46.9;102020;;;;
2021/07/19 10:48:34;;;;;;;10.4;9.3;;;;;;;24.4;47.1;102020;;;;
2021/07/19 10:50:34;;;;;;;10.4;9.3;;;;;;;24.2;48.3;102020;;;;
2021/07/19 10:52:34;;;;;;;10.4;9.3;;;;;;;24.3;48.7;102020;;;;
2021/07/19 10:54:34;;;;;;;10.4;9.3;;;;;;;24.6;47.3;102020;;;;
2021/07/19 10:58:34;;;;;;;10.4;9.3;;;;;;;24.9;48.0;102010;;;;
2021/07/19 11:06:34;;;;;;;12.0;9.4;;;;;;;24.8;46.7;102010;;;;
2021/07/19 11:08:34;;;;;;;12.0;9.4;;;;;;;24.7;46.9;102000;;;;
2021/07/19 11:10:34;;;;;;;12.0;9.4;;;;;;;24.6;46.9;102000;;;;
2021/07/19 11:12:35;;;;;;;12.0;9.4;;;;;;;25.0;47.1;102010;;;;
2021/07/19 11:14:34;;;;;;;12.0;9.4;;;;;;;25.2;46.7;102000;;;;
2021/07/19 11:16:34;;;;;;;12.0;9.4;;;;;;;25.0;46.7;102000;;;;
2021/07/19 11:20:34;;;;;;;12.0;9.4;;;;;;;25.3;46.9;102000;;;;
2021/07/19 11:22:34;;;;;;;12.0;9.4;;;;;;;25.7;47.5;102000;;;;
2021/07/19 11:24:34;;;;;;;12.0;9.4;;;;;;;25.9;47.5;101990;;;;
2021/07/19 11:30:34;;;;;;;10.0;9.0;;;;;;;25.6;47.5;102000;;;;
2021/07/19 11:32:34;;;;;;;10.0;9.0;;;;;;;25.4;44.6;102000;;;;
2021/07/19 11:34:35;;;;;;;10.0;9.0;;;;;;;25.2;46.7;102000;;;;
2021/07/19 11:36:34;;;;;;;10.0;9.0;;;;;;;25.3;46.2;102000;;;;
2021/07/19 11:38:42;;;;;;;10.0;9.0;;;;;;;25.7;48.6;101990;;;;
2021/07/19 11:40:37;;;;;;;10.0;9.0;;;;;;;25.6;45.0;102000;;;;
2021/07/19 11:42:34;;;;;;;10.0;9.0;;;;;;;25.5;45.0;102000;;;;
2021/07/19 11:44:34;;;;;;;10.0;9.0;;;;;;;25.6;44.3;102000;;;;
2021/07/19 11:50:34;;;;;;;9.6;8.6;;;;;;;25.7;44.8;101990;;;;
2021/07/19 11:52:34;;;;;;;9.6;8.6;;;;;;;25.8;47.6;101990;;;;
2021/07/19 11:54:34;;;;;;;9.6;8.6;;;;;;;26.0;45.2;101990;;;;
2021/07/19 11:56:34;;;;;;;9.6;8.6;;;;;;;26.1;46.0;101990;;;;
2021/07/19 11:58:34;;;;;;;9.6;8.6;;;;;;;25.9;45.2;101990;;;;
2021/07/19 12:02:34;;;;;;;9.6;8.6;;;;;;;25.4;43.5;101990;;;;
2021/07/19 12:04:34;;;;;;;9.6;8.6;;;;;;;25.7;44.3;101980;;;;
2021/07/19 12:06:34;;;;;;;10.3;8.8;;;;;;;25.8;45.5;101980;;;;
2021/07/19 12:08:34;;;;;;;10.3;8.8;;;;;;;25.7;44.3;101980;;;;
2021/07/19 12:10:34;;;;;;;10.3;8.8;;;;;;;25.8;44.2;101970;;;;
2021/07/19 12:12:34;;;;;;;10.3;8.8;;;;;;;25.9;45.0;101970;;;;
2021/07/19 12:14:34;;;;;;;10.3;8.8;;;;;;;25.5;44.6;101970;;;;
2021/07/19 12:16:34;;;;;;;10.3;8.8;;;;;;;25.8;44.8;101970;;;;
2021/07/19 12:18:34;;;;;;;10.3;8.8;;;;;;;26.0;44.9;101970;;;;
2021/07/19 12:20:34;;;;;;;10.3;8.8;;;;;;;25.7;43.1;101970;;;;
2021/07/19 12:24:34;;;;;;;10.3;8.8;;;;;;;26.0;45.6;101970;;;;
2021/07/19 12:26:34;;;;;;;9.8;8.8;;;;;;;26.3;44.0;101960;;;;
2021/07/19 12:28:34;;;;;;;9.8;8.8;;;;;;;26.4;44.0;101960;;;;
2021/07/19 12:30:34;;;;;;;9.8;8.8;;;;;;;26.3;44.7;101960;;;;
2021/07/19 12:32:34;;;;;;;9.8;8.8;;;;;;;26.6;46.4;101960;;;;
2021/07/19 12:34:34;;;;;;;9.8;8.8;;;;;;;26.7;42.5;101950;;;;
2021/07/19 12:36:34;;;;;;;9.8;8.8;;;;;;;26.8;46.5;101950;;;;
2021/07/19 12:42:34;;;;;;;9.8;8.8;;;;;;;27.0;43.5;101940;;;;
2021/07/19 12:44:34;;;;;;;9.8;8.8;;;;;;;27.1;43.4;101940;;;;
2021/07/19 12:46:37;;;;;;;10.4;9.3;;;;;;;27.2;43.6;101940;;;;
2021/07/19 12:50:34;;;;;;;10.4;9.3;;;;;;;27.5;42.1;101930;;;;
2021/07/19 12:52:44;;;;;;;10.4;9.3;;;;;;;27.6;41.5;101930;;;;
2021/07/19 12:54:34;;;;;;;10.4;9.3;;;;;;;27.8;41.8;101930;;;;
2021/07/19 13:00:34;;;;;;;10.4;9.3;;;;;;;27.7;44.8;101930;;;;
2021/07/19 13:02:34;;;;;;;10.4;9.3;;;;;;;27.5;43.9;101930;;;;
2021/07/19 13:04:34;;;;;;;10.4;9.3;;;;;;;27.7;42.3;101930;;;;
2021/07/19 13:06:34;;;;;;;9.3;8.3;;;;;;;27.9;41.6;101930;;;;
2021/07/19 13:12:34;;;;;;;9.3;8.3;;;;;;;28.2;42.3;101920;;;;
2021/07/19 13:14:34;;;;;;;9.3;8.3;;;;;;;28.0;39.7;101920;;;;
2021/07/19 13:16:34;;;;;;;9.3;8.3;;;;;;;27.9;40.8;101920;;;;
2021/07/19 13:18:35;;;;;;;9.3;8.3;;;;;;;27.4;41.1;101930;;;;
2021/07/19 13:20:34;;;;;;;9.3;8.3;;;;;;;27.7;41.6;101920;;;;
2021/07/19 13:22:34;;;;;;;9.3;8.3;;;;;;;27.5;40.1;101920;;;;
2021/07/19 13:24:34;;;;;;;9.3;8.3;;;;;;;27.6;40.3;101930;;;;
2021/07/19 13:26:34;;;;;;;9.4;8.5;;;;;;;27.8;43.3;101930;;;;
2021/07/19 13:28:34;;;;;;;9.4;8.5;;;;;;;27.9;43.1;101930;;;;
2021/07/19 13:30:34;;;;;;;9.4;8.5;;;;;;;27.8;42.5;101930;;;;
2021/07/19 13:32:34;;;;;;;9.4;8.5;;;;;;;27.9;41.4;101930;;;;
2021/07/19 13:34:34;;;;;;;9.4;8.5;;;;;;;27.7;41.4;101930;;;;
2021/07/19 13:36:34;;;;;;;9.4;8.5;;;;;;;27.9;42.1;101930;;;;
2021/07/19 13:38:34;;;;;;;9.4;8.5;;;;;;;28.0;40.9;101920;;;;
2021/07/19 13:40:34;;;;;;;9.4;8.5;;;;;;;27.9;40.5;101920;;;;
2021/07/19 13:44:34;;;;;;;9.4;8.5;;;;;;;28.1;42.1;101920;;;;
2021/07/19 13:46:34;;;;;;;9.6;8.5;;;;;;;28.4;43.9;101920;;;;
2021/07/19 13:50:34;;;;;;;9.6;8.5;;;;;;;28.5;40.5;101930;;;;
2021/07/19 13:52:34;;;;;;;9.6;8.5;;;;;;;28.4;42.3;101930;;;;
2021/07/19 13:54:34;;;;;;;9.6;8.5;;;;;;;28.3;41.9;101920;;;;
2021/07/19 14:00:34;;;;;;;9.6;8.5;;;;;;;28.1;41.0;101920;;;;
2021/07/19 14:02:34;;;;;;;9.6;8.5;;;;;;;28.2;42.4;101920;;;;
2021/07/19 14:04:34;;;;;;;9.6;8.5;;;;;;;28.1;43.5;101920;;;;
2021/07/19 14:08:34;;;;;;;11.4;8.7;;;;;;;27.8;42.4;101920;;;;
2021/07/19 14:12:34;;;;;;;11.4;8.7;;;;;;;27.9;41.8;101930;;;;
2021/07/19 14:16:34;;;;;;;11.4;8.7;;;;;;;27.7;43.3;101930;;;;
2021/07/19 14:22:35;;;;;;;11.4;8.7;;;;;;;27.4;40.2;101920;;;;
2021/07/19 14:24:34;;;;;;;11.4;8.7;;;;;;;27.5;41.7;101920;;;;
2021/07/19 14:26:34;;;;;;;10.2;9.1;;;;;;;27.6;41.4;101920;;;;
2021/07/19 14:28:34;;;;;;;10.2;9.1;;;;;;;27.8;40.9;101910;;;;
2021/07/19 14:30:36;;;;;;;10.2;9.1;;;;;;;28.1;43.0;101920;;;;
2021/07/19 14:34:36;;;;;;;10.2;9.1;;;;;;;28.2;40.5;101910;;;;
2021/07/19 14:36:40;;;;;;;10.2;9.1;;;;;;;28.4;42.0;101910;;;;
2021/07/19 14:38:34;;;;;;;10.2;9.1;;;;;;;28.7;40.9;101910;;;;
2021/07/19 14:40:34;;;;;;;10.2;9.1;;;;;;;29.0;41.8;101910;;;;
2021/07/19 14:42:34;;;;;;;10.2;9.1;;;;;;;28.6;41.4;101910;;;;
2021/07/19 14:44:34;;;;;;;10.2;9.1;;;;;;;28.4;40.5;101910;;;;
2021/07/19 14:46:34;;;;;;;10.3;9.2;;;;;;;28.3;40.7;101910;;;;
2021/07/19 14:48:34;;;;;;;10.3;9.2;;;;;;;28.2;41.1;101900;;;;
2021/07/19 14:50:34;;;;;;;10.3;9.2;;;;;;;28.4;42.0;101910;;;;
2021/07/19 14:52:34;;;;;;;10.3;9.2;;;;;;;28.5;42.0;101900;;;;
2021/07/19 14:54:34;;;;;;;10.3;9.2;;;;;;;28.3;41.2;101900;;;;
2021/07/19 14:58:34;;;;;;;10.3;9.2;;;;;;;28.2;42.8;101900;;;;
2021/07/19 15:00:34;;;;;;;10.3;9.2;;;;;;;28.4;42.0;101900;;;;
2021/07/19 15:02:34;;;;;;;10.3;9.2;;;;;;;28.2;41.8;101890;;;;
2021/07/19 15:04:34;;;;;;;10.3;9.2;;;;;;;28.4;42.0;101890;;;;
2021/07/19 15:06:34;;;;;;;9.8;8.8;;;;;;;28.2;40.3;101890;;;;
2021/07/19 15:10:34;;;;;;;9.8;8.8;;;;;;;28.3;39.5;101880;;;;
2021/07/19 15:14:34;;;;;;;9.8;8.8;;;;;;;28.4;42.3;101880;;;;
2021/07/19 15:16:34;;;;;;;9.8;8.8;;;;;;;28.6;39.5;101880;;;;
2021/07/19 15:18:34;;;;;;;9.8;8.8;;;;;;;28.8;42.3;101880;;;;
2021/07/19 15:20:34;;;;;;;9.8;8.8;;;;;;;29.0;39.9;101880;;;;
2021/07/19 15:22:34;;;;;;;9.8;8.8;;;;;;;29.5;41.3;101870;;;;
2021/07/19 15:24:34;;;;;;;9.8;8.8;;;;;;;30.1;41.1;101870;;;;
2021/07/19 15:26:34;;;;;;;10.1;9.0;;;;;;;30.0;37.4;101870;;;;
2021/07/19 15:28:34;;;;;;;10.1;9.0;;;;;;;30.1;38.5;101860;;;;
2021/07/19 15:30:34;;;;;;;10.1;9.0;;;;;;;30.3;37.5;101860;;;;
2021/07/19 15:32:34;;;;;;;10.1;9.0;;;;;;;30.0;36.3;101860;;;;
2021/07/19 15:34:34;;;;;;;10.1;9.0;;;;;;;30.4;39.5;101860;;;;
2021/07/19 15:36:34;;;;;;;10.1;9.0;;;;;;;30.9;38.6;101860;;;;
2021/07/19 15:38:34;;;;;;;10.1;9.0;;;;;;;30.3;36.5;101860;;;;
2021/07/19 15:40:34;;;;;;;10.1;9.0;;;;;;;30.8;38.1;101860;;;;
2021/07/19 15:42:34;;;;;;;10.1;9.0;;;;;;;31.3;37.4;101860;;;;
2021/07/19 15:44:34;;;;;;;10.1;9.0;;;;;;;31.5;37.4;101850;;;;
2021/07/19 15:46:34;;;;;;;9.4;7.9;;;;;;;31.1;36.5;101860;;;;
2021/07/19 15:48:34;;;;;;;9.4;7.9;;;;;;;31.4;35.5;101860;;;;
2021/07/19 15:50:39;;;;;;;9.4;7.9;;;;;;;31.6;36.8;101860;;;;
2021/07/19 15:54:34;;;;;;;9.4;7.9;;;;;;;31.2;35.3;101860;;;;
2021/07/19 15:56:34;;;;;;;9.4;7.9;;;;;;;31.1;37.4;101860;;;;
2021/07/19 15:58:34;;;;;;;9.4;7.9;;;;;;;30.9;34.0;101850;;;;
2021/07/19 16:00:34;;;;;;;9.4;7.9;;;;;;;30.7;35.8;101850;;;;
2021/07/19 16:02:34;;;;;;;9.4;7.9;;;;;;;31.1;34.5;101850;;;;
2021/07/19 16:04:34;;;;;;;9.4;7.9;;;;;;;31.4;34.9;101850;;;;
2021/07/19 16:06:34;;;;;;;8.4;7.5;;;;;;;31.7;32.8;101850;;;;
2021/07/19 16:08:34;;;;;;;8.4;7.5;;;;;;;31.9;33.6;101850;;;;
2021/07/19 16:10:34;;;;;;;8.4;7.5;;;;;;;31.5;32.6;101850;;;;
2021/07/19 16:12:34;;;;;;;8.4;7.5;;;;;;;31.7;32.8;101850;;;;
2021/07/19 16:14:44;;;;;;;8.4;7.5;;;;;;;31.9;32.8;101850;;;;
2021/07/19 16:16:34;;;;;;;8.4;7.5;;;;;;;31.6;32.1;101850;;;;
2021/07/19 16:18:34;;;;;;;8.4;7.5;;;;;;;31.0;32.0;101850;;;;
2021/07/19 16:20:34;;;;;;;8.4;7.5;;;;;;;31.2;32.5;101850;;;;
2021/07/19 16:22:34;;;;;;;8.4;7.5;;;;;;;31.5;31.4;101850;;;;
2021/07/19 16:26:34;;;;;;;9.7;7.9;;;;;;;31.3;32.3;101840;;;;
2021/07/19 16:28:34;;;;;;;9.7;7.9;;;;;;;31.6;31.7;101850;;;;
2021/07/19 16:30:34;;;;;;;9.7;7.9;;;;;;;31.0;32.6;101850;;;;
2021/07/19 16:32:34;;;;;;;9.7;7.9;;;;;;;31.5;32.2;101850;;;;
2021/07/19 16:34:34;;;;;;;9.7;7.9;;;;;;;31.4;31.0;101850;;;;
2021/07/19 16:36:34;;;;;;;9.7;7.9;;;;;;;31.5;31.8;101850;;;;
2021/07/19 16:38:35;;;;;;;9.7;7.9;;;;;;;30.9;31.8;101840;;;;
2021/07/19 16:40:34;;;;;;;9.7;7.9;;;;;;;31.0;31.8;101840;;;;
2021/07/19 16:42:34;;;;;;;9.7;7.9;;;;;;;31.1;31.3;101850;;;;
2021/07/19 16:44:34;;;;;;;9.7;7.9;;;;;;;30.8;31.3;101850;;;;
2021/07/19 16:48:34;;;;;;;9.3;8.4;;;;;;;30.9;29.8;101840;;;;
2021/07/19 16:50:34;;;;;;;9.3;8.4;;;;;;;30.3;31.1;101840;;;;
2021/07/19 16:52:34;;;;;;;9.3;8.4;;;;;;;30.0;31.9;101840;;;;
2021/07/19 16:54:34;;;;;;;9.3;8.4;;;;;;;30.3;31.8;101830;;;;
2021/07/19 16:56:44;;;;;;;9.3;8.4;;;;;;;30.6;32.1;101840;;;;
2021/07/19 17:04:34;;;;;;;9.3;8.4;;;;;;;30.4;30.7;101830;;;;
2021/07/19 17:06:34;;;;;;;10.7;9.6;;;;;;;30.7;31.6;101830;;;;
2021/07/19 17:08:34;;;;;;;10.7;9.6;;;;;;;30.9;31.3;101830;;;;
2021/07/19 17:10:34;;;;;;;10.7;9.6;;;;;;;30.8;30.7;101830;;;;
2021/07/19 17:12:34;;;;;;;10.7;9.6;;;;;;;30.4;30.6;101830;;;;
2021/07/19 17:14:34;;;;;;;10.7;9.6;;;;;;;30.9;31.3;101830;;;;
2021/07/19 17:16:34;;;;;;;10.7;9.6;;;;;;;30.4;31.5;101830;;;;
2021/07/19 17:18:34;;;;;;;10.7;9.6;;;;;;;30.5;31.7;101840;;;;
2021/07/19 17:20:34;;;;;;;10.7;9.6;;;;;;;30.2;31.4;101840;;;;
2021/07/19 17:24:35;;;;;;;10.7;9.6;;;;;;;30.1;31.4;101840;;;;
2021/07/19 17:26:34;;;;;;;11.5;10.1;;;;;;;30.0;32.3;101840;;;;
2021/07/19 17:28:34;;;;;;;11.5;10.1;;;;;;;30.2;31.8;101830;;;;
2021/07/19 17:30:34;;;;;;;11.5;10.1;;;;;;;30.3;32.1;101830;;;;
2021/07/19 17:32:34;;;;;;;11.5;10.1;;;;;;;30.0;32.4;101830;;;;
2021/07/19 17:34:34;;;;;;;11.5;10.1;;;;;;;29.4;33.1;101830;;;;
2021/07/19 17:36:34;;;;;;;11.5;10.1;;;;;;;29.7;32.6;101830;;;;
2021/07/19 17:38:34;;;;;;;11.5;10.1;;;;;;;29.3;32.6;101830;;;;
2021/07/19 17:40:34;;;;;;;11.5;10.1;;;;;;;29.6;32.7;101830;;;;
2021/07/19 17:42:34;;;;;;;11.5;10.1;;;;;;;29.4;33.0;101830;;;;
2021/07/19 17:44:34;;;;;;;11.5;10.1;;;;;;;29.3;33.1;101830;;;;
2021/07/19 17:46:34;;;;;;;10.4;9.4;;;;;;;29.0;34.0;101830;;;;